createdAt,value
2018-12-26T00:03:18.270Z,6.67
2018-12-26T00:08:37.861Z,5.47
2018-12-26T00:13:55.917Z,9.10
2018-12-26T00:19:13.639Z,6.10
2018-12-26T00:24:31.866Z,21.13
2018-12-26T00:29:49.821Z,18.77
2018-12-26T00:35:07.911Z,29.27
2018-12-26T00:40:25.866Z,24.30
2018-12-26T00:45:44.322Z,19.07
2018-12-26T00:51:02.559Z,17.40
2018-12-26T00:56:20.965Z,17.13
2018-12-26T01:01:38.710Z,19.37
2018-12-26T01:06:56.380Z,18.87
2018-12-26T01:12:14.608Z,7.77
2018-12-26T01:17:33.107Z,6.60
2018-12-26T01:22:50.851Z,14.37
2018-12-26T01:28:08.394Z,4.97
2018-12-26T01:33:26.289Z,7.47
2018-12-26T01:38:44.394Z,9.83
2018-12-26T01:44:01.921Z,5.10
2018-12-26T01:49:20.818Z,5.30
2018-12-26T01:54:38.294Z,5.60
2018-12-26T01:59:56.523Z,5.97
2018-12-26T02:05:14.407Z,8.33
2018-12-26T02:10:32.709Z,6.67
2018-12-26T02:15:50.117Z,5.90
2018-12-26T02:21:08.213Z,8.10
2018-12-26T02:26:26.095Z,6.03
2018-12-26T02:31:43.493Z,6.50
2018-12-26T02:37:01.867Z,5.73
2018-12-26T02:42:20.110Z,8.70
2018-12-26T02:47:37.699Z,6.20
2018-12-26T02:52:55.025Z,8.30
2018-12-26T02:58:13.067Z,5.27
2018-12-26T03:03:31.955Z,5.43
2018-12-26T03:08:49.681Z,5.30
2018-12-26T03:14:07.959Z,5.73
2018-12-26T03:19:26.087Z,7.37
2018-12-26T03:24:44.330Z,6.10
2018-12-26T03:30:02.046Z,6.37
2018-12-26T03:35:20.268Z,5.97
2018-12-26T03:40:38.172Z,5.43
2018-12-26T03:45:56.609Z,6.00
2018-12-26T03:51:14.295Z,5.13
2018-12-26T03:56:32.527Z,4.80
2018-12-26T04:01:50.249Z,6.53
2018-12-26T04:07:08.210Z,6.10
2018-12-26T04:12:26.978Z,5.97
2018-12-26T04:17:45.270Z,4.93
2018-12-26T04:23:03.326Z,5.43
2018-12-26T04:28:21.478Z,17.23
2018-12-26T04:33:39.669Z,6.23
2018-12-26T04:38:57.608Z,6.60
2018-12-26T04:44:15.669Z,5.23
2018-12-26T04:49:33.695Z,5.23
2018-12-26T04:54:51.097Z,5.63
2018-12-26T05:00:09.636Z,7.00
2018-12-26T05:05:27.606Z,5.10
2018-12-26T05:10:45.695Z,6.57
2018-12-26T05:16:04.127Z,4.97
2018-12-26T05:21:22.186Z,6.63
2018-12-26T05:26:40.485Z,7.60
2018-12-26T05:31:46.975Z,5.13
2018-12-26T05:37:04.516Z,5.37
2018-12-26T05:42:22.584Z,6.13
2018-12-26T05:47:40.742Z,7.77
2018-12-26T05:52:58.968Z,5.10
2018-12-26T05:58:16.854Z,5.63
2018-12-26T06:03:34.275Z,5.80
2018-12-26T06:08:52.240Z,4.53
2018-12-26T06:14:09.700Z,6.10
2018-12-26T06:19:27.091Z,7.77
2018-12-26T06:24:45.506Z,8.73
2018-12-26T06:30:03.733Z,4.20
2018-12-26T06:35:21.731Z,6.13
2018-12-26T06:40:39.343Z,4.17
2018-12-26T06:45:56.938Z,4.43
2018-12-26T06:51:14.509Z,4.83
2018-12-26T06:56:33.091Z,5.27
2018-12-26T07:01:51.419Z,3.93
2018-12-26T07:07:09.503Z,4.20
2018-12-26T07:12:27.751Z,9.07
2018-12-26T07:17:46.152Z,6.60
2018-12-26T07:23:04.573Z,5.37
2018-12-26T07:28:22.698Z,7.53
2018-12-26T07:33:40.804Z,4.93
2018-12-26T07:38:58.574Z,8.27
2018-12-26T07:44:16.537Z,5.67
2018-12-26T07:49:34.515Z,4.63
2018-12-26T07:54:52.930Z,4.73
2018-12-26T08:00:10.874Z,3.90
2018-12-26T08:05:28.263Z,3.00
2018-12-26T08:10:46.551Z,3.67
2018-12-26T08:16:05.108Z,5.77
2018-12-26T08:21:23.233Z,9.00
2018-12-26T08:26:40.990Z,3.20
2018-12-26T08:31:58.701Z,8.43
2018-12-26T08:37:16.632Z,11.40
2018-12-26T08:42:34.255Z,7.20
2018-12-26T08:47:52.189Z,4.07
2018-12-26T08:53:09.808Z,8.50
2018-12-26T08:58:35.163Z,3.93
2018-12-26T09:03:48.526Z,5.40
2018-12-26T09:09:06.612Z,10.37
2018-12-26T09:14:25.027Z,19.43
2018-12-26T09:19:43.415Z,85.00
2018-12-26T09:25:01.078Z,25.30
2018-12-26T09:30:18.450Z,16.03
2018-12-26T09:35:36.888Z,14.10
2018-12-26T09:40:54.363Z,12.47
2018-12-26T09:46:11.912Z,14.37
2018-12-26T09:51:30.107Z,15.00
2018-12-26T09:56:50.746Z,6.00
2018-12-26T10:02:08.736Z,8.70
2018-12-26T10:07:26.922Z,3.73
2018-12-26T10:12:45.352Z,3.77
2018-12-26T10:18:04.286Z,3.47
2018-12-26T10:23:22.773Z,4.17
2018-12-26T10:28:41.461Z,8.77
2018-12-26T10:33:59.579Z,9.30
2018-12-26T10:39:17.728Z,10.80
2018-12-26T10:44:35.891Z,17.77
2018-12-26T10:49:53.430Z,22.50
2018-12-26T10:55:11.256Z,23.90
2018-12-26T11:00:30.101Z,33.77
2018-12-26T11:05:48.631Z,7.30
2018-12-26T11:11:07.090Z,4.07
2018-12-26T11:16:25.032Z,30.97
2018-12-26T11:21:45.225Z,33.13
2018-12-26T11:27:03.051Z,23.17
2018-12-26T11:32:21.530Z,49.90
2018-12-26T11:37:39.806Z,29.47
2018-12-26T11:42:57.625Z,35.53
2018-12-26T11:48:17.203Z,54.23
2018-12-26T11:53:35.115Z,56.20
2018-12-26T11:58:53.239Z,50.20
2018-12-26T12:04:11.857Z,30.90
2018-12-26T12:09:31.565Z,8.43
2018-12-26T12:14:49.109Z,3.80
2018-12-26T12:20:07.397Z,3.00
2018-12-26T12:25:25.369Z,2.40
2018-12-26T12:30:43.985Z,1.87
2018-12-26T12:36:02.034Z,1.60
2018-12-26T12:41:20.305Z,1.87
2018-12-26T12:46:39.086Z,2.30
2018-12-26T12:51:59.138Z,2.23
2018-12-26T12:57:17.701Z,2.63
2018-12-26T13:02:35.667Z,4.40
2018-12-26T13:07:54.231Z,5.40
2018-12-26T13:13:12.160Z,2.80
2018-12-26T13:18:30.174Z,12.47
2018-12-26T13:23:47.638Z,6.60
2018-12-26T13:29:05.800Z,7.00
2018-12-26T13:34:23.521Z,15.90
2018-12-26T13:39:42.040Z,4.30
2018-12-26T13:44:59.425Z,5.30
2018-12-26T13:50:17.832Z,5.70
2018-12-26T13:55:35.909Z,10.77
2018-12-26T14:00:53.669Z,5.53
2018-12-26T14:06:11.472Z,4.53
2018-12-26T14:11:29.548Z,12.17
2018-12-26T14:16:48.257Z,12.77
2018-12-26T14:22:06.313Z,31.73
2018-12-26T14:27:29.310Z,41.23
2018-12-26T14:32:43.698Z,40.13
2018-12-26T14:38:01.537Z,66.07
2018-12-26T14:43:21.719Z,28.73
2018-12-26T14:48:39.206Z,23.17
2018-12-26T14:53:57.796Z,40.90
2018-12-26T14:59:15.900Z,17.27
2018-12-26T15:04:33.784Z,27.90
2018-12-26T15:09:51.695Z,8.50
2018-12-26T15:15:09.437Z,16.60
2018-12-26T15:20:27.210Z,29.63
2018-12-26T15:25:45.718Z,32.20
2018-12-26T15:31:03.818Z,17.77
2018-12-26T15:36:22.460Z,28.13
2018-12-26T15:41:40.423Z,23.80
2018-12-26T15:46:58.335Z,16.70
2018-12-26T15:52:16.281Z,16.10
2018-12-26T15:57:34.653Z,15.80
2018-12-26T16:02:53.085Z,13.70
2018-12-26T16:08:10.506Z,13.37
2018-12-26T16:13:27.909Z,17.00
2018-12-26T16:18:45.844Z,17.53
2018-12-26T16:24:04.412Z,19.10
2018-12-26T16:29:22.390Z,17.87
2018-12-26T16:34:40.440Z,12.20
2018-12-26T16:40:00.626Z,16.83
2018-12-26T16:45:18.607Z,20.87
2018-12-26T16:50:37.666Z,22.70
2018-12-26T16:55:56.134Z,12.50
2018-12-26T17:01:14.150Z,9.00
2018-12-26T17:06:31.861Z,13.83
2018-12-26T17:11:51.156Z,21.23
2018-12-26T17:17:09.378Z,6.80
2018-12-26T17:22:28.718Z,8.77
2018-12-26T17:27:48.632Z,6.67
2018-12-26T17:33:08.079Z,7.63
2018-12-26T17:38:25.756Z,20.60
2018-12-26T17:43:43.876Z,26.17
2018-12-26T17:49:01.954Z,23.90
2018-12-26T17:54:19.938Z,25.07
2018-12-26T17:59:39.215Z,22.37
2018-12-26T18:04:57.083Z,27.50
2018-12-26T18:10:15.352Z,19.10
2018-12-26T18:15:34.365Z,18.53
2018-12-26T18:20:53.739Z,30.00
2018-12-26T18:26:11.468Z,61.50
2018-12-26T18:31:29.062Z,37.93
2018-12-26T18:36:47.043Z,45.43
2018-12-26T18:42:05.751Z,39.37
2018-12-26T18:47:23.547Z,32.97
2018-12-26T18:52:42.138Z,37.87
2018-12-26T18:58:00.576Z,29.13
2018-12-26T19:03:18.070Z,34.30
2018-12-26T19:08:36.290Z,30.50
2018-12-26T19:13:54.090Z,37.47
2018-12-26T19:19:12.386Z,26.07
2018-12-26T19:24:30.503Z,25.03
2018-12-26T19:29:49.747Z,26.93
2018-12-26T19:35:08.225Z,43.83
2018-12-26T19:40:25.684Z,33.47
2018-12-26T19:45:43.509Z,30.70
2018-12-26T19:51:01.432Z,28.93
2018-12-26T19:56:19.595Z,25.73
2018-12-26T20:01:37.139Z,34.13
2018-12-26T20:06:54.899Z,33.23
2018-12-26T20:12:12.961Z,41.60
2018-12-26T20:17:30.693Z,43.73
2018-12-26T20:22:48.493Z,28.23
2018-12-26T20:28:06.707Z,22.57
2018-12-26T20:33:24.203Z,22.47
2018-12-26T20:38:42.420Z,24.37
2018-12-26T20:44:03.637Z,20.27
2018-12-26T20:49:21.266Z,23.50
2018-12-26T20:54:39.338Z,19.77
2018-12-26T20:59:57.620Z,26.83
2018-12-26T21:05:16.034Z,27.73
2018-12-26T21:10:34.126Z,33.47
2018-12-26T21:15:52.499Z,37.17
2018-12-26T21:21:12.848Z,32.17
2018-12-26T21:26:31.836Z,38.23
2018-12-26T21:31:52.042Z,27.60
2018-12-26T21:37:10.641Z,31.87
2018-12-26T21:42:29.132Z,27.00
2018-12-26T21:47:47.466Z,31.67
2018-12-26T21:53:05.837Z,27.90
2018-12-26T21:58:24.563Z,27.33
2018-12-26T22:03:42.200Z,28.03
2018-12-26T22:08:59.908Z,29.17
2018-12-26T22:14:18.207Z,27.97
2018-12-26T22:19:35.820Z,28.63
2018-12-26T22:24:53.852Z,27.10
2018-12-26T22:30:11.779Z,26.37
2018-12-26T22:35:29.465Z,24.00
2018-12-26T22:40:47.616Z,26.30
2018-12-26T22:46:06.579Z,20.53
2018-12-26T22:51:24.853Z,23.93
2018-12-26T22:56:43.302Z,18.70
2018-12-26T23:02:01.173Z,19.70
2018-12-26T23:07:19.112Z,18.30
2018-12-26T23:12:37.222Z,19.23
2018-12-26T23:17:56.402Z,22.37
2018-12-26T23:23:14.310Z,18.20
2018-12-26T23:28:32.622Z,24.40
2018-12-26T23:33:50.962Z,21.63
2018-12-26T23:39:09.421Z,24.83
2018-12-26T23:44:27.983Z,35.23
2018-12-26T23:49:45.731Z,21.67
2018-12-26T23:55:04.046Z,18.43
